createdAt,value
2018-08-18T00:00:27.326Z,16.50
2018-08-18T00:05:30.986Z,16.60
2018-08-18T00:10:34.581Z,16.40
2018-08-18T00:15:38.270Z,16.40
2018-08-18T00:20:41.859Z,16.90
2018-08-18T00:25:45.422Z,16.60
2018-08-18T00:30:49.070Z,16.30
2018-08-18T00:35:52.683Z,16.10
2018-08-18T00:40:56.290Z,16.20
2018-08-18T00:45:59.925Z,16.10
2018-08-18T00:51:03.627Z,16.30
2018-08-18T00:56:07.461Z,16.00
2018-08-18T01:01:14.530Z,15.80
2018-08-18T01:06:19.738Z,15.90
2018-08-18T01:11:23.546Z,15.90
2018-08-18T01:16:27.239Z,15.70
2018-08-18T01:21:30.971Z,15.50
2018-08-18T01:26:34.502Z,15.70
2018-08-18T01:31:41.457Z,15.90
2018-08-18T01:36:45.012Z,16.10
2018-08-18T01:41:50.734Z,15.80
2018-08-18T01:46:55.010Z,15.60
2018-08-18T01:52:00.508Z,15.70
2018-08-18T01:57:09.109Z,15.50
2018-08-18T02:02:15.349Z,15.30
2018-08-18T02:07:26.626Z,15.60
2018-08-18T02:12:30.550Z,15.50
2018-08-18T02:17:38.083Z,15.30
2018-08-18T02:22:41.661Z,15.50
2018-08-18T02:27:45.298Z,15.30
2018-08-18T02:32:48.873Z,15.10
2018-08-18T02:37:52.475Z,15.30
2018-08-18T02:42:56.126Z,14.90
2018-08-18T02:48:10.741Z,14.80
2018-08-18T02:53:24.843Z,14.80
2018-08-18T02:58:28.372Z,15.10
2018-08-18T03:03:32.017Z,15.00
2018-08-18T03:08:35.731Z,14.80
2018-08-18T03:13:40.397Z,14.80
2018-08-18T03:18:47.302Z,14.90
2018-08-18T03:24:02.114Z,14.60
2018-08-18T03:29:05.739Z,14.60
2018-08-18T03:34:09.749Z,14.60
2018-08-18T03:39:23.257Z,14.90
2018-08-18T03:44:26.775Z,14.50
2018-08-18T03:49:30.474Z,14.20
2018-08-18T03:54:34.005Z,14.40
2018-08-18T03:59:37.576Z,14.40
2018-08-18T04:04:41.156Z,14.30
2018-08-18T04:09:44.826Z,13.90
2018-08-18T04:14:48.486Z,14.20
2018-08-18T04:19:52.130Z,14.10
2018-08-18T04:24:56.295Z,14.20
2018-08-18T04:30:00.875Z,13.90
2018-08-18T04:35:04.499Z,13.90
2018-08-18T04:40:08.092Z,14.10
2018-08-18T04:45:12.506Z,14.30
2018-08-18T04:50:16.079Z,14.40
2018-08-18T04:55:19.897Z,14.30
2018-08-18T05:00:23.539Z,14.50
2018-08-18T05:05:32.500Z,14.60
2018-08-18T05:10:37.472Z,14.70
2018-08-18T05:15:41.009Z,14.60
2018-08-18T05:20:44.739Z,14.60
2018-08-18T05:25:50.319Z,14.60
2018-08-18T05:30:54.486Z,14.90
2018-08-18T05:35:59.160Z,15.20
2018-08-18T05:41:04.091Z,15.30
2018-08-18T05:46:07.734Z,15.30
2018-08-18T05:51:11.437Z,15.20
2018-08-18T05:56:15.077Z,15.40
2018-08-18T06:01:37.120Z,15.50
2018-08-18T06:06:41.402Z,15.60
2018-08-18T06:11:45.026Z,15.70
2018-08-18T06:16:48.712Z,16.40
2018-08-18T06:21:54.679Z,16.20
2018-08-18T06:26:58.361Z,16.20
2018-08-18T06:32:03.578Z,16.40
2018-08-18T06:37:11.053Z,16.70
2018-08-18T06:42:25.781Z,16.70
2018-08-18T06:47:29.404Z,16.80
2018-08-18T06:52:33.119Z,17.00
2018-08-18T06:57:46.423Z,17.20
2018-08-18T07:02:52.175Z,17.40
2018-08-18T07:07:55.860Z,17.70
2018-08-18T07:13:00.982Z,22.20
2018-08-18T07:18:05.746Z,24.70
2018-08-18T07:23:09.717Z,27.10
2018-08-18T07:28:21.013Z,28.00
2018-08-18T07:33:24.744Z,28.40
2018-08-18T07:38:28.874Z,27.70
2018-08-18T07:43:35.374Z,29.10
2018-08-18T07:48:39.229Z,28.30
2018-08-18T07:53:42.910Z,27.70
2018-08-18T07:58:46.802Z,27.60
2018-08-18T08:03:50.539Z,30.10
2018-08-18T08:08:54.199Z,29.70
2018-08-18T08:13:59.043Z,29.40
2018-08-18T08:19:06.474Z,29.10
2018-08-18T08:24:11.070Z,29.70
2018-08-18T08:29:14.674Z,30.90
2018-08-18T08:34:19.778Z,31.40
2018-08-18T08:39:23.355Z,30.40
2018-08-18T08:44:28.162Z,31.00
2018-08-18T08:49:31.853Z,31.40
2018-08-18T08:54:36.657Z,31.20
2018-08-18T08:59:41.339Z,30.40
2018-08-18T09:04:49.726Z,29.40
2018-08-18T09:09:53.282Z,29.40
2018-08-18T09:15:00.924Z,31.20
2018-08-18T09:20:05.777Z,32.60
2018-08-18T09:25:15.744Z,32.50
2018-08-18T09:30:22.043Z,32.40
2018-08-18T09:35:26.795Z,31.30
2018-08-18T09:40:32.038Z,31.40
2018-08-18T09:45:35.744Z,32.20
2018-08-18T09:50:40.573Z,32.00
2018-08-18T09:55:44.270Z,32.00
2018-08-18T10:01:00.346Z,32.40
2018-08-18T10:06:05.056Z,32.60
2018-08-18T10:11:08.637Z,32.20
2018-08-18T10:16:17.869Z,31.90
2018-08-18T10:21:21.454Z,32.20
2018-08-18T10:26:31.798Z,32.90
2018-08-18T10:31:37.066Z,32.90
2018-08-18T10:36:40.785Z,32.60
2018-08-18T10:41:56.337Z,31.70
2018-08-18T10:47:16.418Z,30.10
2018-08-18T10:52:32.403Z,29.90
2018-08-18T10:57:48.169Z,29.30
2018-08-18T11:02:52.943Z,28.90
2018-08-18T11:08:06.121Z,28.60
2018-08-18T11:13:09.755Z,28.00
2018-08-18T11:18:13.599Z,28.10
2018-08-18T11:23:17.193Z,28.50
2018-08-18T11:28:21.478Z,28.90
2018-08-18T11:33:40.474Z,27.50
2018-08-18T11:38:45.683Z,28.30
2018-08-18T11:43:50.679Z,28.50
2018-08-18T11:48:54.285Z,28.50
2018-08-18T11:54:00.453Z,28.50
2018-08-18T11:59:24.325Z,28.60
2018-08-18T12:04:27.942Z,28.50
2018-08-18T12:09:31.543Z,28.80
2018-08-18T12:14:35.193Z,27.80
2018-08-18T12:19:39.847Z,28.00
2018-08-18T12:24:48.213Z,27.70
2018-08-18T12:29:52.082Z,28.30
2018-08-18T12:37:51.446Z,26.80
2018-08-18T12:43:01.645Z,25.90
2018-08-18T12:48:07.285Z,26.70
2018-08-18T12:53:13.057Z,26.40
2018-08-18T12:58:17.121Z,25.60
2018-08-18T13:03:22.823Z,25.70
2018-08-18T13:08:26.386Z,25.70
2018-08-18T13:13:30.399Z,25.90
2018-08-18T13:18:34.411Z,25.60
2018-08-18T13:23:39.926Z,25.90
2018-08-18T13:28:47.790Z,25.70
2018-08-18T13:33:51.473Z,25.60
2018-08-18T13:38:56.181Z,25.50
2018-08-18T13:44:00.812Z,25.10
2018-08-18T13:49:05.246Z,25.00
2018-08-18T13:54:12.403Z,25.80
2018-08-18T13:59:51.312Z,25.50
2018-08-18T14:04:54.882Z,25.20
2018-08-18T14:10:02.091Z,25.40
2018-08-18T14:15:05.908Z,25.40
2018-08-18T14:20:09.750Z,25.50
2018-08-18T14:25:13.386Z,25.40
2018-08-18T14:30:17.268Z,25.60
2018-08-18T14:35:21.210Z,24.90
2018-08-18T14:40:25.109Z,25.10
2018-08-18T14:45:28.919Z,25.10
2018-08-18T14:50:33.515Z,25.40
2018-08-18T14:55:37.914Z,25.50
2018-08-18T15:00:42.643Z,26.00
2018-08-18T15:05:46.293Z,26.10
2018-08-18T15:10:49.951Z,25.00
2018-08-18T15:15:55.596Z,24.40
2018-08-18T15:21:00.249Z,24.80
2018-08-18T15:26:07.369Z,25.60
2018-08-18T15:31:15.807Z,25.00
2018-08-18T15:36:32.730Z,24.50
2018-08-18T15:41:36.551Z,24.50
2018-08-18T15:46:40.845Z,25.50
2018-08-18T15:51:45.531Z,25.70
2018-08-18T15:56:53.834Z,25.40
2018-08-18T16:01:57.626Z,25.20
2018-08-18T16:07:02.378Z,24.90
2018-08-18T16:12:06.074Z,24.30
2018-08-18T16:17:09.834Z,24.10
2018-08-18T16:22:13.425Z,24.30
2018-08-18T16:27:17.223Z,24.20
2018-08-18T16:32:26.552Z,24.10
2018-08-18T16:37:32.219Z,24.40
2018-08-18T16:42:38.156Z,24.00
2018-08-18T16:47:52.118Z,24.00
2018-08-18T16:52:56.314Z,24.00
2018-08-18T16:58:01.958Z,24.30
2018-08-18T17:03:10.602Z,24.40
2018-08-18T17:08:14.262Z,23.80
2018-08-18T17:13:18.113Z,24.10
2018-08-18T17:18:23.706Z,24.30
2018-08-18T17:23:29.271Z,23.90
2018-08-18T17:28:33.505Z,23.60
2018-08-18T17:33:37.052Z,23.60
2018-08-18T17:38:40.862Z,23.60
2018-08-18T17:43:44.523Z,23.50
2018-08-18T17:48:53.484Z,23.40
2018-08-18T17:53:57.270Z,23.30
2018-08-18T17:59:01.041Z,23.40
2018-08-18T18:04:04.646Z,23.40
2018-08-18T18:09:08.441Z,23.20
2018-08-18T18:14:12.198Z,23.10
2018-08-18T18:19:16.889Z,23.00
2018-08-18T18:24:31.724Z,22.90
2018-08-18T18:29:36.457Z,22.80
2018-08-18T18:34:40.119Z,22.70
2018-08-18T18:39:55.781Z,22.60
2018-08-18T18:44:59.806Z,22.40
2018-08-18T18:50:03.409Z,22.20
2018-08-18T18:55:07.462Z,22.00
2018-08-18T19:00:11.186Z,22.00
2018-08-18T19:05:22.226Z,22.10
2018-08-18T19:10:25.890Z,22.00
2018-08-18T19:15:30.545Z,21.80
2018-08-18T19:20:36.252Z,21.60
2018-08-18T19:25:44.127Z,21.60
2018-08-18T19:30:47.891Z,21.40
2018-08-18T19:35:55.130Z,21.30
2018-08-18T19:40:58.750Z,21.20
2018-08-18T19:46:02.365Z,21.00
2018-08-18T19:51:11.403Z,20.90
2018-08-18T19:56:27.385Z,20.90
2018-08-18T20:01:30.928Z,21.00
2018-08-18T20:06:35.093Z,21.20
2018-08-18T20:11:38.779Z,21.00
2018-08-18T20:16:44.553Z,21.00
2018-08-18T20:21:49.806Z,20.50
2018-08-18T20:26:53.435Z,20.20
2018-08-18T20:32:01.707Z,20.10
2018-08-18T20:37:05.315Z,20.10
2018-08-18T20:42:10.181Z,20.10
2018-08-18T20:47:13.820Z,20.10
2018-08-18T20:52:19.486Z,20.00
2018-08-18T20:57:23.061Z,19.90
2018-08-18T21:02:33.543Z,19.80
2018-08-18T21:07:37.234Z,19.70
2018-08-18T21:12:48.681Z,19.50
2018-08-18T21:17:52.335Z,19.40
2018-08-18T21:22:57.754Z,19.20
2018-08-18T21:28:01.397Z,19.20
2018-08-18T21:33:04.971Z,19.10
2018-08-18T21:38:08.713Z,19.20
2018-08-18T21:43:23.731Z,19.10
2018-08-18T21:48:38.798Z,19.00
2018-08-18T21:53:43.322Z,19.00
2018-08-18T21:58:46.962Z,18.80
2018-08-18T22:03:51.906Z,18.70
2018-08-18T22:09:09.555Z,18.50
2018-08-18T22:14:18.972Z,18.50
2018-08-18T22:19:22.691Z,18.40
2018-08-18T22:24:26.553Z,18.40
2018-08-18T22:29:30.223Z,18.30
2018-08-18T22:34:39.131Z,18.20
2018-08-18T22:39:43.375Z,18.10
2018-08-18T22:44:48.074Z,18.20
2018-08-18T22:49:53.280Z,18.10
2018-08-18T22:54:57.083Z,18.20
2018-08-18T23:00:01.079Z,18.10
2018-08-18T23:05:04.934Z,18.00
2018-08-18T23:10:09.554Z,18.00
2018-08-18T23:15:13.159Z,17.70
2018-08-18T23:20:16.815Z,17.70
2018-08-18T23:25:32.162Z,17.80
2018-08-18T23:30:39.798Z,17.70
2018-08-18T23:35:43.338Z,17.50
2018-08-18T23:40:46.940Z,17.30
2018-08-18T23:45:50.590Z,17.30
2018-08-18T23:50:54.162Z,17.30
2018-08-18T23:55:59.369Z,17.00
